createdAt,value
2023-02-02T00:00:21.233Z,102285.03
2023-02-02T00:02:47.629Z,102286.88
2023-02-02T00:05:14.044Z,102279.09
2023-02-02T00:07:40.478Z,102285.44
2023-02-02T00:10:07.299Z,102288.28
2023-02-02T00:12:33.721Z,102286.25
2023-02-02T00:15:00.163Z,102285.22
2023-02-02T00:17:26.610Z,102280.91
2023-02-02T00:19:53.020Z,102285.22
2023-02-02T00:22:19.490Z,102290.16
2023-02-02T00:24:45.958Z,102290.38
2023-02-02T00:27:12.338Z,102292.41
2023-02-02T00:29:39.773Z,102283.19
2023-02-02T00:32:06.260Z,102278.06
2023-02-02T00:34:32.632Z,102284.22
2023-02-02T00:36:59.053Z,102285.22
2023-02-02T00:39:26.185Z,102280.75
2023-02-02T00:41:53.231Z,102282.56
2023-02-02T00:44:38.232Z,102288.72
2023-02-02T00:47:05.183Z,102284.00
2023-02-02T00:49:31.850Z,102281.31
2023-02-02T00:51:59.053Z,102280.13
2023-02-02T00:54:26.502Z,102284.81
2023-02-02T00:56:52.989Z,102280.31
2023-02-02T00:59:19.404Z,102284.81
2023-02-02T01:01:46.359Z,102281.31
2023-02-02T01:04:12.729Z,102292.19
2023-02-02T01:06:39.109Z,102297.53
2023-02-02T01:09:05.463Z,102295.09
2023-02-02T01:11:31.928Z,102296.91
2023-02-02T01:13:58.396Z,102288.13
2023-02-02T01:16:24.997Z,102290.97
2023-02-02T01:18:51.865Z,102294.06
2023-02-02T01:21:18.687Z,102296.91
2023-02-02T01:23:45.126Z,102303.47
2023-02-02T01:26:13.074Z,102294.88
2023-02-02T01:28:40.198Z,102303.88
2023-02-02T01:31:09.037Z,102309.59
2023-02-02T01:33:35.665Z,102305.50
2023-02-02T01:36:06.315Z,102308.41
2023-02-02T01:38:33.512Z,102309.41
2023-02-02T01:41:00.262Z,102306.13
2023-02-02T01:43:52.902Z,102308.16
2023-02-02T01:46:21.754Z,102305.72
2023-02-02T01:48:56.962Z,102306.75
2023-02-02T01:51:27.758Z,102304.25
2023-02-02T01:53:56.264Z,102310.03
2023-02-02T01:56:29.040Z,102313.69
2023-02-02T01:58:57.431Z,102309.41
2023-02-02T02:01:24.588Z,102314.72
2023-02-02T02:03:51.144Z,102311.44
2023-02-02T02:06:19.496Z,102312.47
2023-02-02T02:08:57.858Z,102311.66
2023-02-02T02:11:24.856Z,102310.00
2023-02-02T02:14:32.749Z,102308.16
2023-02-02T02:17:25.260Z,102309.16
2023-02-02T02:20:42.496Z,102295.84
2023-02-02T02:23:49.198Z,102291.38
2023-02-02T02:26:54.391Z,102294.03
2023-02-02T02:29:44.751Z,102290.53
2023-02-02T02:32:43.577Z,102289.88
2023-02-02T02:35:23.653Z,102283.75
2023-02-02T02:37:52.904Z,102293.38
2023-02-02T02:40:32.407Z,102285.56
2023-02-02T02:43:04.242Z,102285.56
2023-02-02T02:45:32.173Z,102289.28
2023-02-02T02:47:58.921Z,102272.47
2023-02-02T02:50:25.585Z,102270.66
2023-02-02T02:53:03.297Z,102271.69
2023-02-02T02:55:41.608Z,102268.81
2023-02-02T02:58:18.748Z,102272.25
2023-02-02T03:00:57.453Z,102262.09
2023-02-02T03:03:41.876Z,102266.19
2023-02-02T03:06:19.637Z,102268.22
2023-02-02T03:08:52.679Z,102268.63
2023-02-02T03:11:20.525Z,102271.91
2023-02-02T03:13:47.361Z,102282.16
2023-02-02T03:16:15.616Z,102286.25
2023-02-02T03:18:42.466Z,102291.38
2023-02-02T03:21:09.004Z,102287.91
2023-02-02T03:23:35.449Z,102302.84
2023-02-02T03:26:02.013Z,102296.28
2023-02-02T03:28:29.601Z,102302.84
2023-02-02T03:30:59.366Z,102298.16
2023-02-02T03:33:25.881Z,102300.81
2023-02-02T03:35:52.651Z,102295.09
2023-02-02T03:38:19.054Z,102298.78
2023-02-02T03:40:45.432Z,102301.22
2023-02-02T03:43:11.861Z,102295.69
2023-02-02T03:45:40.655Z,102296.28
2023-02-02T03:48:07.513Z,102290.16
2023-02-02T03:50:34.029Z,102288.31
2023-02-02T03:53:00.524Z,102304.09
2023-02-02T03:55:26.959Z,102296.72
2023-02-02T03:57:53.553Z,102287.72
2023-02-02T04:00:20.351Z,102291.97
2023-02-02T04:02:46.780Z,102294.47
2023-02-02T04:05:13.171Z,102289.75
2023-02-02T04:07:39.579Z,102282.56
2023-02-02T04:10:06.299Z,102290.97
2023-02-02T04:12:32.694Z,102289.31
2023-02-02T04:14:59.145Z,102283.19
2023-02-02T04:17:25.551Z,102291.97
2023-02-02T04:19:57.923Z,102298.75
2023-02-02T04:22:25.736Z,102279.69
2023-02-02T04:24:52.146Z,102281.94
2023-02-02T04:27:18.988Z,102270.06
2023-02-02T04:29:45.488Z,102269.03
2023-02-02T04:32:11.892Z,102276.41
2023-02-02T04:34:38.313Z,102284.19
2023-02-02T04:37:04.712Z,102292.41
2023-02-02T04:39:31.167Z,102294.84
2023-02-02T04:41:57.938Z,102285.22
2023-02-02T04:44:24.494Z,102297.91
2023-02-02T04:46:50.938Z,102300.16
2023-02-02T04:49:17.556Z,102302.44
2023-02-02T04:51:44.116Z,102312.06
2023-02-02T04:54:10.557Z,102304.06
2023-02-02T04:56:36.987Z,102320.06
2023-02-02T04:59:03.628Z,102304.69
2023-02-02T05:01:30.772Z,102314.91
2023-02-02T05:03:57.437Z,102305.88
2023-02-02T05:06:23.813Z,102303.03
2023-02-02T05:08:50.576Z,102316.53
2023-02-02T05:11:19.808Z,102316.53
2023-02-02T05:13:48.381Z,102321.88
2023-02-02T05:16:15.316Z,102326.19
2023-02-02T05:18:42.443Z,102321.88
2023-02-02T05:21:09.175Z,102322.72
2023-02-02T05:23:35.706Z,102311.63
2023-02-02T05:26:02.093Z,102307.13
2023-02-02T05:28:29.332Z,102304.22
2023-02-02T05:30:55.876Z,102315.94
2023-02-02T05:33:22.331Z,102316.75
2023-02-02T05:35:49.326Z,102320.22
2023-02-02T05:38:16.372Z,102315.34
2023-02-02T05:40:42.874Z,102319.63
2023-02-02T05:43:09.274Z,102320.66
2023-02-02T05:45:35.676Z,102320.66
2023-02-02T05:48:02.109Z,102312.44
2023-02-02T05:50:28.493Z,102320.84
2023-02-02T05:52:54.896Z,102320.22
2023-02-02T05:55:21.373Z,102319.41
2023-02-02T05:57:47.778Z,102325.78
2023-02-02T06:00:14.477Z,102327.41
2023-02-02T06:02:40.906Z,102319.03
2023-02-02T06:05:07.805Z,102335.81
2023-02-02T06:07:34.174Z,102329.88
2023-02-02T06:10:00.563Z,102323.94
2023-02-02T06:12:26.986Z,102327.84
2023-02-02T06:14:53.396Z,102332.38
2023-02-02T06:17:19.847Z,102336.06
2023-02-02T06:19:46.256Z,102338.09
2023-02-02T06:22:12.670Z,102338.28
2023-02-02T06:24:39.012Z,102342.00
2023-02-02T06:27:05.391Z,102339.75
2023-02-02T06:29:31.809Z,102336.25
2023-02-02T06:31:58.400Z,102350.41
2023-02-02T06:34:24.848Z,102355.13
2023-02-02T06:36:51.277Z,102350.59
2023-02-02T06:39:17.693Z,102353.47
2023-02-02T06:41:48.160Z,102362.28
2023-02-02T06:44:15.333Z,102357.16
2023-02-02T06:46:42.366Z,102364.34
2023-02-02T06:49:09.127Z,102362.72
2023-02-02T06:51:35.601Z,102372.75
2023-02-02T06:54:03.830Z,102374.59
2023-02-02T06:56:30.329Z,102382.78
2023-02-02T06:58:56.759Z,102376.66
2023-02-02T07:01:23.229Z,102372.97
2023-02-02T07:03:51.089Z,102380.13
2023-02-02T07:06:20.040Z,102385.69
2023-02-02T07:09:01.958Z,102366.41
2023-02-02T07:11:29.700Z,102372.53
2023-02-02T07:13:56.241Z,102369.06
2023-02-02T07:16:22.662Z,102364.75
2023-02-02T07:18:49.436Z,102375.63
2023-02-02T07:21:23.737Z,102374.78
2023-02-02T07:23:51.289Z,102366.00
2023-02-02T07:26:19.419Z,102378.31
2023-02-02T07:28:46.947Z,102380.97
2023-02-02T07:31:19.689Z,102391.81
2023-02-02T07:33:47.350Z,102394.47
2023-02-02T07:36:16.716Z,102387.31
2023-02-02T07:38:44.099Z,102392.66
2023-02-02T07:41:10.634Z,102397.75
2023-02-02T07:43:37.063Z,102390.78
2023-02-02T07:46:07.986Z,102411.69
2023-02-02T07:48:34.745Z,102405.34
2023-02-02T07:51:02.594Z,102402.69
2023-02-02T07:53:29.581Z,102412.31
2023-02-02T07:56:15.850Z,102410.28
2023-02-02T07:58:43.028Z,102424.19
2023-02-02T08:01:11.555Z,102420.31
2023-02-02T08:03:38.863Z,102423.16
2023-02-02T08:06:15.030Z,102424.63
2023-02-02T08:08:41.782Z,102428.72
2023-02-02T08:11:10.292Z,102429.97
2023-02-02T08:13:37.259Z,102427.09
2023-02-02T08:16:04.142Z,102427.72
2023-02-02T08:18:30.601Z,102422.16
2023-02-02T08:21:01.067Z,102434.47
2023-02-02T08:23:28.114Z,102440.63
2023-02-02T08:25:55.192Z,102441.44
2023-02-02T08:28:21.514Z,102447.41
2023-02-02T08:30:47.923Z,102449.22
2023-02-02T08:33:14.288Z,102457.03
2023-02-02T08:35:44.068Z,102448.19
2023-02-02T08:38:10.511Z,102453.34
2023-02-02T08:40:36.975Z,102460.91
2023-02-02T08:43:03.704Z,102463.41
2023-02-02T08:46:01.633Z,102465.44
2023-02-02T08:48:19.541Z,102464.81
2023-02-02T08:50:55.450Z,102475.91
2023-02-02T08:53:22.874Z,102474.69
2023-02-02T08:55:57.299Z,102483.31
2023-02-02T08:58:23.715Z,102486.38
2023-02-02T09:00:50.161Z,102483.91
2023-02-02T09:03:16.938Z,102482.25
2023-02-02T09:05:44.189Z,102482.69
2023-02-02T09:08:10.692Z,102478.78
2023-02-02T09:10:38.055Z,102487.16
2023-02-02T09:13:04.808Z,102487.56
2023-02-02T09:15:31.258Z,102497.66
2023-02-02T09:17:57.598Z,102504.19
2023-02-02T09:20:24.066Z,102500.31
2023-02-02T09:22:50.491Z,102506.84
2023-02-02T09:25:17.099Z,102513.63
2023-02-02T09:27:43.574Z,102518.53
2023-02-02T09:30:10.511Z,102520.78
2023-02-02T09:32:36.884Z,102522.44
2023-02-02T09:35:03.456Z,102521.81
2023-02-02T09:37:29.980Z,102523.88
2023-02-02T09:39:56.369Z,102524.69
2023-02-02T09:42:57.195Z,102532.50
2023-02-02T09:45:49.709Z,102527.56
2023-02-02T09:48:29.809Z,102526.53
2023-02-02T09:51:01.111Z,102530.44
2023-02-02T09:53:36.606Z,102527.78
2023-02-02T09:56:11.335Z,102536.19
2023-02-02T09:58:54.660Z,102544.44
2023-02-02T10:01:33.939Z,102538.69
2023-02-02T10:04:21.413Z,102543.81
2023-02-02T10:06:53.822Z,102541.34
2023-02-02T10:09:36.694Z,102548.50
2023-02-02T10:12:24.192Z,102552.00
2023-02-02T10:15:30.461Z,102554.47
2023-02-02T10:18:23.124Z,102562.25
2023-02-02T10:21:17.508Z,102569.47
2023-02-02T10:23:45.649Z,102571.53
2023-02-02T10:26:36.604Z,102568.22
2023-02-02T10:29:19.252Z,102564.34
2023-02-02T10:32:22.534Z,102568.63
2023-02-02T10:35:18.610Z,102573.94
2023-02-02T10:38:08.065Z,102568.19
2023-02-02T10:40:37.082Z,102578.06
2023-02-02T10:43:45.759Z,102581.53
2023-02-02T10:46:23.633Z,102578.88
2023-02-02T10:48:52.771Z,102584.19
2023-02-02T10:51:28.573Z,102578.66
2023-02-02T10:53:58.781Z,102577.03
2023-02-02T10:56:51.991Z,102582.16
2023-02-02T10:59:29.882Z,102583.59
2023-02-02T11:01:56.383Z,102581.72
2023-02-02T11:04:41.757Z,102589.75
2023-02-02T11:07:08.260Z,102583.59
2023-02-02T11:09:41.008Z,102585.66
2023-02-02T11:12:19.771Z,102580.31
2023-02-02T11:14:52.374Z,102577.22
2023-02-02T11:17:21.825Z,102573.09
2023-02-02T11:19:49.794Z,102580.50
2023-02-02T11:22:26.128Z,102575.53
2023-02-02T11:24:53.592Z,102575.13
2023-02-02T11:27:26.373Z,102570.63
2023-02-02T11:29:55.487Z,102573.06
2023-02-02T11:32:31.028Z,102575.50
2023-02-02T11:35:06.639Z,102578.78
2023-02-02T11:37:35.690Z,102570.78
2023-02-02T11:40:20.913Z,102571.81
2023-02-02T11:42:48.371Z,102582.91
2023-02-02T11:45:25.198Z,102588.88
2023-02-02T11:47:51.821Z,102581.28
2023-02-02T11:50:25.300Z,102579.00
2023-02-02T11:52:52.216Z,102579.00
2023-02-02T11:55:26.125Z,102576.94
2023-02-02T11:58:18.378Z,102567.47
2023-02-02T12:00:54.922Z,102570.00
2023-02-02T12:03:27.833Z,102570.41
2023-02-02T12:05:54.250Z,102562.81
2023-02-02T12:08:21.006Z,102564.22
2023-02-02T12:11:01.295Z,102571.44
2023-02-02T12:13:40.550Z,102574.31
2023-02-02T12:16:34.950Z,102570.19
2023-02-02T12:19:17.145Z,102568.97
2023-02-02T12:21:52.578Z,102568.13
2023-02-02T12:24:29.476Z,102565.31
2023-02-02T12:27:04.681Z,102560.97
2023-02-02T12:30:03.741Z,102562.44
2023-02-02T12:32:38.985Z,102560.38
2023-02-02T12:35:14.991Z,102562.00
2023-02-02T12:37:44.258Z,102559.75
2023-02-02T12:40:42.476Z,102565.09
2023-02-02T12:43:08.838Z,102557.88
2023-02-02T12:46:04.882Z,102559.75
2023-02-02T12:49:00.013Z,102554.19
2023-02-02T12:51:47.646Z,102559.13
2023-02-02T12:54:48.451Z,102567.13
2023-02-02T12:57:28.469Z,102551.31
2023-02-02T12:59:57.621Z,102550.09
2023-02-02T13:02:42.223Z,102553.00
2023-02-02T13:05:21.603Z,102551.75
2023-02-02T13:08:04.966Z,102554.66
2023-02-02T13:10:40.636Z,102550.34
2023-02-02T13:13:16.768Z,102543.97
2023-02-02T13:15:47.293Z,102549.50
2023-02-02T13:18:16.493Z,102563.09
2023-02-02T13:20:47.357Z,102549.72
2023-02-02T13:23:18.397Z,102552.00
2023-02-02T13:25:58.069Z,102561.66
2023-02-02T13:28:46.471Z,102566.16
2023-02-02T13:31:24.778Z,102568.22
2023-02-02T13:34:22.800Z,102571.13
2023-02-02T13:37:02.525Z,102575.63
2023-02-02T13:39:36.228Z,102566.41
2023-02-02T13:42:05.117Z,102576.63
2023-02-02T13:44:43.709Z,102572.53
2023-02-02T13:47:34.891Z,102581.16
2023-02-02T13:50:07.580Z,102578.91
2023-02-02T13:53:29.617Z,102571.50
2023-02-02T13:56:27.120Z,102573.97
2023-02-02T13:59:20.999Z,102571.28
2023-02-02T14:01:50.002Z,102570.88
2023-02-02T14:04:29.078Z,102574.56
2023-02-02T14:07:05.094Z,102565.38
2023-02-02T14:09:34.441Z,102569.88
2023-02-02T14:12:08.676Z,102566.78
2023-02-02T14:14:38.788Z,102573.38
2023-02-02T14:17:34.444Z,102578.72
2023-02-02T14:20:02.433Z,102582.19
2023-02-02T14:22:41.261Z,102581.97
2023-02-02T14:25:33.293Z,102581.78
2023-02-02T14:28:00.768Z,102589.59
2023-02-02T14:30:30.162Z,102579.13
2023-02-02T14:33:22.291Z,102577.88
2023-02-02T14:35:49.704Z,102578.28
2023-02-02T14:38:22.077Z,102579.94
2023-02-02T14:41:38.342Z,102586.09
2023-02-02T14:44:06.241Z,102585.28
2023-02-02T14:46:36.226Z,102592.66
2023-02-02T14:49:02.602Z,102594.94
2023-02-02T14:51:32.507Z,102590.63
2023-02-02T14:54:02.515Z,102596.16
2023-02-02T14:56:54.397Z,102598.22
2023-02-02T14:59:37.320Z,102600.88
2023-02-02T15:02:20.386Z,102604.78
2023-02-02T15:04:49.401Z,102603.16
2023-02-02T15:07:37.196Z,102601.50
2023-02-02T15:10:04.174Z,102611.56
2023-02-02T15:12:39.812Z,102610.94
2023-02-02T15:15:19.117Z,102599.44
2023-02-02T15:17:53.799Z,102612.78
2023-02-02T15:20:26.224Z,102617.13
2023-02-02T15:22:58.194Z,102619.97
2023-02-02T15:25:39.902Z,102616.50
2023-02-02T15:28:46.484Z,102610.31
2023-02-02T15:31:25.129Z,102611.34
2023-02-02T15:33:55.399Z,102620.59
2023-02-02T15:36:26.193Z,102615.88
2023-02-02T15:38:56.368Z,102609.72
2023-02-02T15:41:27.925Z,102610.94
2023-02-02T15:43:54.274Z,102619.56
2023-02-02T15:46:26.163Z,102605.19
2023-02-02T15:49:33.713Z,102624.50
2023-02-02T15:52:10.034Z,102607.47
2023-02-02T15:54:39.834Z,102606.63
2023-02-02T15:57:31.145Z,102618.94
2023-02-02T15:59:59.178Z,102621.63
2023-02-02T16:02:35.736Z,102620.81
2023-02-02T16:05:02.309Z,102619.34
2023-02-02T16:07:31.852Z,102621.22
2023-02-02T16:10:04.245Z,102629.44
2023-02-02T16:12:31.003Z,102629.63
2023-02-02T16:14:57.548Z,102630.44
2023-02-02T16:17:29.674Z,102635.78
2023-02-02T16:20:15.850Z,102642.16
2023-02-02T16:22:45.161Z,102647.50
2023-02-02T16:25:17.012Z,102659.19
2023-02-02T16:27:47.142Z,102652.19
2023-02-02T16:30:28.064Z,102650.78
2023-02-02T16:32:54.697Z,102652.41
2023-02-02T16:35:37.593Z,102660.59
2023-02-02T16:38:31.439Z,102656.50
2023-02-02T16:41:09.614Z,102662.88
2023-02-02T16:43:43.339Z,102662.03
2023-02-02T16:46:12.679Z,102666.56
2023-02-02T16:48:42.541Z,102668.41
2023-02-02T16:51:15.118Z,102670.47
2023-02-02T16:53:44.855Z,102674.16
2023-02-02T16:56:28.899Z,102670.63
2023-02-02T16:58:58.076Z,102675.78
2023-02-02T17:01:40.737Z,102680.50
2023-02-02T17:04:17.245Z,102678.22
2023-02-02T17:06:52.455Z,102683.38
2023-02-02T17:09:36.383Z,102680.72
2023-02-02T17:12:35.336Z,102684.41
2023-02-02T17:15:29.022Z,102694.44
2023-02-02T17:17:55.975Z,102695.06
2023-02-02T17:20:23.002Z,102689.94
2023-02-02T17:22:53.220Z,102686.44
2023-02-02T17:25:41.855Z,102690.13
2023-02-02T17:28:17.741Z,102690.13
2023-02-02T17:30:47.239Z,102685.81
2023-02-02T17:33:17.890Z,102689.31
2023-02-02T17:35:55.636Z,102697.31
2023-02-02T17:38:24.556Z,102696.72
2023-02-02T17:40:51.568Z,102698.13
2023-02-02T17:43:18.043Z,102695.47
2023-02-02T17:45:44.493Z,102697.31
2023-02-02T17:48:14.448Z,102696.50
2023-02-02T17:50:41.915Z,102696.28
2023-02-02T17:53:13.178Z,102696.28
2023-02-02T17:55:42.007Z,102698.94
2023-02-02T17:58:10.462Z,102693.44
2023-02-02T18:00:38.511Z,102696.09
2023-02-02T18:03:14.148Z,102684.81
2023-02-02T18:05:43.224Z,102689.31
2023-02-02T18:08:12.063Z,102686.63
2023-02-02T18:10:38.821Z,102684.81
2023-02-02T18:13:05.862Z,102686.44
2023-02-02T18:15:32.383Z,102681.13
2023-02-02T18:17:58.898Z,102678.44
2023-02-02T18:20:25.288Z,102678.22
2023-02-02T18:22:51.990Z,102681.13
2023-02-02T18:25:18.444Z,102671.25
2023-02-02T18:27:45.106Z,102672.09
2023-02-02T18:30:13.595Z,102667.56
2023-02-02T18:32:41.498Z,102671.66
2023-02-02T18:35:10.497Z,102666.53
2023-02-02T18:37:37.899Z,102670.03
2023-02-02T18:40:05.237Z,102665.50
2023-02-02T18:42:33.060Z,102678.66
2023-02-02T18:45:00.425Z,102679.47
2023-02-02T18:47:27.630Z,102675.78
2023-02-02T18:49:54.062Z,102672.91
2023-02-02T18:52:20.801Z,102677.22
2023-02-02T18:54:47.591Z,102671.88
2023-02-02T18:57:14.495Z,102670.03
2023-02-02T18:59:41.533Z,102652.19
2023-02-02T19:02:12.646Z,102658.56
2023-02-02T19:04:38.985Z,102653.44
2023-02-02T19:07:23.890Z,102652.41
2023-02-02T19:09:50.242Z,102657.75
2023-02-02T19:12:16.646Z,102662.25
2023-02-02T19:14:43.220Z,102661.00
2023-02-02T19:17:12.501Z,102656.91
2023-02-02T19:19:40.499Z,102652.81
2023-02-02T19:22:17.244Z,102655.88
2023-02-02T19:24:43.699Z,102656.47
2023-02-02T19:27:21.522Z,102651.13
2023-02-02T19:29:53.681Z,102653.56
2023-02-02T19:32:22.923Z,102655.81
2023-02-02T19:34:52.403Z,102652.53
2023-02-02T19:37:27.881Z,102652.53
2023-02-02T19:40:15.555Z,102654.78
2023-02-02T19:42:51.328Z,102650.47
2023-02-02T19:45:28.267Z,102656.81
2023-02-02T19:48:00.156Z,102664.00
2023-02-02T19:50:29.683Z,102670.16
2023-02-02T19:52:56.333Z,102664.19
2023-02-02T19:55:28.529Z,102661.09
2023-02-02T19:58:01.109Z,102665.00
2023-02-02T20:00:31.212Z,102663.75
2023-02-02T20:02:59.066Z,102676.06
2023-02-02T20:05:32.456Z,102671.97
2023-02-02T20:08:14.476Z,102673.78
2023-02-02T20:10:43.481Z,102676.44
2023-02-02T20:13:23.524Z,102681.78
2023-02-02T20:15:51.945Z,102688.13
2023-02-02T20:18:26.712Z,102696.75
2023-02-02T20:20:56.929Z,102695.94
2023-02-02T20:23:29.610Z,102695.75
2023-02-02T20:25:57.463Z,102695.53
2023-02-02T20:28:37.941Z,102691.66
2023-02-02T20:31:05.407Z,102694.34
2023-02-02T20:33:33.139Z,102695.16
2023-02-02T20:36:02.483Z,102686.34
2023-02-02T20:38:38.075Z,102689.00
2023-02-02T20:41:05.789Z,102680.63
2023-02-02T20:43:32.193Z,102692.91
2023-02-02T20:45:58.586Z,102689.84
2023-02-02T20:48:25.624Z,102690.25
2023-02-02T20:50:52.032Z,102680.22
2023-02-02T20:53:18.386Z,102682.88
2023-02-02T20:55:44.908Z,102681.47
2023-02-02T20:58:11.683Z,102685.81
2023-02-02T21:00:38.934Z,102687.06
2023-02-02T21:03:05.293Z,102689.31
2023-02-02T21:05:31.667Z,102695.25
2023-02-02T21:07:58.012Z,102696.91
2023-02-02T21:10:26.240Z,102680.91
2023-02-02T21:12:52.867Z,102690.34
2023-02-02T21:15:19.312Z,102694.47
2023-02-02T21:17:45.810Z,102692.59
2023-02-02T21:20:13.567Z,102686.03
2023-02-02T21:22:40.046Z,102687.50
2023-02-02T21:25:06.853Z,102689.97
2023-02-02T21:27:33.189Z,102686.25
2023-02-02T21:29:59.563Z,102686.25
2023-02-02T21:32:25.889Z,102689.97
2023-02-02T21:34:52.241Z,102694.69
2023-02-02T21:37:18.588Z,102695.53
2023-02-02T21:39:49.479Z,102700.66
2023-02-02T21:42:18.441Z,102700.25
2023-02-02T21:44:49.563Z,102688.72
2023-02-02T21:47:21.829Z,102678.91
2023-02-02T21:49:48.357Z,102687.53
2023-02-02T21:52:17.263Z,102686.28
2023-02-02T21:54:44.338Z,102690.59
2023-02-02T21:57:35.918Z,102695.13
2023-02-02T22:00:22.410Z,102694.09
2023-02-02T22:02:50.999Z,102685.06
2023-02-02T22:05:21.830Z,102678.69
2023-02-02T22:07:50.245Z,102677.28
2023-02-02T22:10:30.391Z,102670.50
2023-02-02T22:12:56.932Z,102661.47
2023-02-02T22:15:27.255Z,102665.56
2023-02-02T22:17:53.647Z,102660.00
2023-02-02T22:20:34.550Z,102662.28
2023-02-02T22:23:02.122Z,102659.22
2023-02-02T22:25:34.319Z,102660.84
2023-02-02T22:28:16.659Z,102649.56
2023-02-02T22:30:43.336Z,102650.38
2023-02-02T22:33:12.332Z,102652.00
2023-02-02T22:35:39.386Z,102669.88
2023-02-02T22:38:06.345Z,102655.69
2023-02-02T22:40:32.678Z,102649.16
2023-02-02T22:43:01.276Z,102651.81
2023-02-02T22:45:28.237Z,102647.50
2023-02-02T22:47:54.807Z,102629.84
2023-02-02T22:50:26.996Z,102629.44
2023-02-02T22:52:53.966Z,102631.09
2023-02-02T22:55:20.700Z,102627.34
2023-02-02T22:57:47.242Z,102620.41
2023-02-02T23:00:16.717Z,102605.41
2023-02-02T23:02:43.277Z,102606.22
2023-02-02T23:05:12.456Z,102591.63
2023-02-02T23:07:39.519Z,102587.31
2023-02-02T23:10:07.665Z,102575.81
2023-02-02T23:12:34.586Z,102576.03
2023-02-02T23:15:00.913Z,102579.72
2023-02-02T23:17:27.268Z,102577.25
2023-02-02T23:19:53.654Z,102578.09
2023-02-02T23:22:20.036Z,102581.78
2023-02-02T23:24:46.405Z,102587.94
2023-02-02T23:27:13.012Z,102602.13
2023-02-02T23:29:39.722Z,102590.19
2023-02-02T23:32:07.068Z,102587.53
2023-02-02T23:34:33.656Z,102592.06
2023-02-02T23:37:00.010Z,102589.38
2023-02-02T23:39:26.335Z,102594.50
2023-02-02T23:41:52.680Z,102591.03
2023-02-02T23:44:19.008Z,102595.31
2023-02-02T23:46:45.553Z,102597.97
2023-02-02T23:49:11.957Z,102602.72
2023-02-02T23:51:38.688Z,102610.31
2023-02-02T23:54:05.380Z,102613.59
2023-02-02T23:56:31.971Z,102612.38
2023-02-02T23:58:58.337Z,102617.13
